createdAt,value
2019-01-23T00:01:40.905Z,18.50
2019-01-23T00:04:10.024Z,19.20
2019-01-23T00:06:39.433Z,19.83
2019-01-23T00:09:28.268Z,19.70
2019-01-23T00:11:57.677Z,18.63
2019-01-23T00:14:27.848Z,19.90
2019-01-23T00:17:02.482Z,19.27
2019-01-23T00:19:49.580Z,20.67
2019-01-23T00:22:19.178Z,19.23
2019-01-23T00:25:27.733Z,19.53
2019-01-23T00:27:58.706Z,19.70
2019-01-23T00:30:28.890Z,19.37
2019-01-23T00:32:57.905Z,21.13
2019-01-23T00:35:27.461Z,18.87
2019-01-23T00:37:56.373Z,19.20
2019-01-23T00:40:25.611Z,19.00
2019-01-23T00:42:54.581Z,20.27
2019-01-23T00:45:45.102Z,19.20
2019-01-23T00:48:23.933Z,19.20
2019-01-23T00:50:56.319Z,19.30
2019-01-23T00:53:31.109Z,18.63
2019-01-23T00:56:09.459Z,19.07
2019-01-23T00:59:48.886Z,19.10
2019-01-23T01:02:23.790Z,19.17
2019-01-23T01:04:54.641Z,20.03
2019-01-23T01:07:26.086Z,19.27
2019-01-23T01:10:10.090Z,19.87
2019-01-23T01:12:51.388Z,19.93
2019-01-23T01:15:23.569Z,20.13
2019-01-23T01:18:03.270Z,20.33
2019-01-23T01:20:41.230Z,20.67
2019-01-23T01:26:50.599Z,20.37
2019-01-23T01:29:23.130Z,21.13
2019-01-23T01:31:56.148Z,20.90
2019-01-23T01:34:29.605Z,20.30
2019-01-23T01:37:01.945Z,21.53
2019-01-23T01:39:31.635Z,21.17
2019-01-23T01:42:08.550Z,21.17
2019-01-23T01:44:39.087Z,21.60
2019-01-23T01:47:10.441Z,20.53
2019-01-23T01:53:15.037Z,20.03
2019-01-23T01:55:48.267Z,19.40
2019-01-23T01:58:19.060Z,20.10
2019-01-23T02:00:49.288Z,20.70
2019-01-23T02:03:22.081Z,19.53
2019-01-23T02:05:55.383Z,18.30
2019-01-23T02:08:43.677Z,19.30
2019-01-23T02:11:17.562Z,18.53
2019-01-23T02:13:47.107Z,18.50
2019-01-23T02:16:18.918Z,19.07
2019-01-23T02:18:53.650Z,19.40
2019-01-23T02:21:24.497Z,19.43
2019-01-23T02:23:58.570Z,19.43
2019-01-23T02:26:31.547Z,18.93
2019-01-23T02:29:09.326Z,19.40
2019-01-23T02:31:35.960Z,18.83
2019-01-23T02:34:07.076Z,17.87
2019-01-23T02:36:46.157Z,17.20
2019-01-23T02:39:33.961Z,18.17
2019-01-23T02:42:11.367Z,18.37
2019-01-23T02:44:40.988Z,17.43
2019-01-23T02:47:15.261Z,17.97
2019-01-23T02:49:45.194Z,18.43
2019-01-23T02:52:16.531Z,18.20
2019-01-23T02:55:11.241Z,18.03
2019-01-23T02:57:49.878Z,18.30
2019-01-23T03:00:21.996Z,17.90
2019-01-23T03:02:53.983Z,19.00
2019-01-23T03:05:25.634Z,18.20
2019-01-23T03:07:56.066Z,18.17
2019-01-23T03:10:47.046Z,19.03
2019-01-23T03:13:25.753Z,17.77
2019-01-23T03:16:21.680Z,18.47
2019-01-23T03:19:20.893Z,18.97
2019-01-23T03:22:12.278Z,19.07
2019-01-23T03:24:50.066Z,18.77
2019-01-23T03:27:21.812Z,18.53
2019-01-23T03:30:29.783Z,19.33
2019-01-23T03:33:25.800Z,19.43
2019-01-23T03:36:20.166Z,20.87
2019-01-23T03:39:22.924Z,20.73
2019-01-23T03:41:59.378Z,23.93
2019-01-23T03:44:36.375Z,23.63
2019-01-23T03:47:20.596Z,24.83
2019-01-23T03:49:51.157Z,24.13
2019-01-23T03:52:36.218Z,25.87
2019-01-23T03:55:14.408Z,27.03
2019-01-23T03:57:45.005Z,27.97
2019-01-23T04:00:21.229Z,27.20
2019-01-23T04:02:58.458Z,27.20
2019-01-23T04:05:53.728Z,26.93
2019-01-23T04:08:35.918Z,26.73
2019-01-23T04:11:12.628Z,28.10
2019-01-23T04:13:48.334Z,26.97
2019-01-23T04:16:25.363Z,26.17
2019-01-23T04:19:06.783Z,25.33
2019-01-23T04:22:00.898Z,24.73
2019-01-23T04:24:33.663Z,25.67
2019-01-23T04:27:04.060Z,26.77
2019-01-23T04:29:39.574Z,24.07
2019-01-23T04:32:07.575Z,23.43
2019-01-23T04:34:37.583Z,25.30
2019-01-23T04:37:07.741Z,24.77
2019-01-23T04:39:56.875Z,23.13
2019-01-23T04:46:16.045Z,23.13
2019-01-23T04:49:31.791Z,24.20
2019-01-23T04:52:28.902Z,23.90
2019-01-23T04:55:35.829Z,22.33
2019-01-23T05:01:37.230Z,25.27
2019-01-23T05:04:51.929Z,25.07
2019-01-23T05:07:48.842Z,25.07
2019-01-23T05:10:52.321Z,25.10
2019-01-23T05:13:40.513Z,24.23
2019-01-23T05:16:26.892Z,24.53
2019-01-23T05:19:06.264Z,23.20
2019-01-23T05:21:39.081Z,24.20
2019-01-23T05:24:29.041Z,20.93
2019-01-23T05:27:36.355Z,22.97
2019-01-23T05:30:25.562Z,22.03
2019-01-23T05:32:57.654Z,22.33
2019-01-23T05:35:27.805Z,23.10
2019-01-23T05:38:13.310Z,23.67
2019-01-23T05:41:00.144Z,24.80
2019-01-23T05:43:34.746Z,23.40
2019-01-23T05:46:28.686Z,23.30
2019-01-23T05:50:03.469Z,25.00
2019-01-23T05:53:05.097Z,23.27
2019-01-23T05:55:47.513Z,23.87
2019-01-23T05:58:26.512Z,23.53
2019-01-23T06:01:01.516Z,25.63
2019-01-23T06:07:38.457Z,24.47
2019-01-23T06:10:56.181Z,23.57
2019-01-23T06:17:41.740Z,23.93
2019-01-23T06:21:20.935Z,23.73
2019-01-23T06:24:39.211Z,23.07
2019-01-23T06:27:16.490Z,25.20
2019-01-23T06:36:41.259Z,22.07
2019-01-23T06:39:31.393Z,22.83
2019-01-23T06:42:01.988Z,24.83
2019-01-23T06:44:31.642Z,24.97
2019-01-23T06:47:13.606Z,24.53
2019-01-23T06:50:03.429Z,23.23
2019-01-23T06:52:33.963Z,23.23
2019-01-23T06:55:08.363Z,23.53
2019-01-23T06:57:41.623Z,24.40
2019-01-23T07:00:17.171Z,23.70
2019-01-23T07:02:59.975Z,26.30
2019-01-23T07:05:39.286Z,25.90
2019-01-23T07:11:53.058Z,29.97
2019-01-23T07:17:49.725Z,24.50
2019-01-23T07:21:09.658Z,25.10
2019-01-23T07:23:39.586Z,25.57
2019-01-23T07:26:08.657Z,24.60
2019-01-23T07:28:49.345Z,25.83
2019-01-23T07:31:17.918Z,25.27
2019-01-23T07:33:48.975Z,25.03
2019-01-23T07:36:23.493Z,25.50
2019-01-23T07:39:17.071Z,24.97
2019-01-23T07:41:53.229Z,24.97
2019-01-23T07:44:23.087Z,26.00
2019-01-23T07:46:52.036Z,27.23
2019-01-23T07:49:39.825Z,26.00
2019-01-23T07:52:38.095Z,26.17
2019-01-23T07:55:10.479Z,27.43
2019-01-23T07:57:42.229Z,25.43
2019-01-23T08:00:15.070Z,25.43
2019-01-23T08:02:44.419Z,26.50
2019-01-23T08:05:19.419Z,26.00
2019-01-23T08:07:44.741Z,23.53
2019-01-23T08:10:18.900Z,26.03
2019-01-23T08:12:47.999Z,24.87
2019-01-23T08:15:25.060Z,21.93
2019-01-23T08:17:54.185Z,25.53
2019-01-23T08:20:24.077Z,22.90
2019-01-23T08:22:53.497Z,22.13
2019-01-23T08:25:22.449Z,21.67
2019-01-23T08:27:51.895Z,25.43
2019-01-23T08:30:21.696Z,23.47
2019-01-23T08:32:50.894Z,21.10
2019-01-23T08:35:21.958Z,23.63
2019-01-23T08:37:51.322Z,21.80
2019-01-23T08:40:21.709Z,23.10
2019-01-23T08:42:55.631Z,23.60
2019-01-23T08:45:26.422Z,23.17
2019-01-23T08:47:58.157Z,23.00
2019-01-23T08:50:31.317Z,20.47
2019-01-23T08:53:00.385Z,22.50
2019-01-23T08:55:29.683Z,22.90
2019-01-23T08:57:59.189Z,21.07
2019-01-23T09:00:28.634Z,21.90
2019-01-23T09:02:58.129Z,22.60
2019-01-23T09:05:27.464Z,21.87
2019-01-23T09:07:56.482Z,23.27
2019-01-23T09:10:26.089Z,23.53
2019-01-23T09:12:55.168Z,23.40
2019-01-23T09:15:25.289Z,24.73
2019-01-23T09:17:54.402Z,24.43
2019-01-23T09:20:23.561Z,22.93
2019-01-23T09:22:53.562Z,24.60
2019-01-23T09:25:25.286Z,28.13
2019-01-23T09:27:54.714Z,26.43
2019-01-23T09:30:29.170Z,29.23
2019-01-23T09:33:20.922Z,28.50
2019-01-23T11:01:28.629Z,25.83
2019-01-23T11:03:59.264Z,24.87
2019-01-23T11:06:28.928Z,26.80
2019-01-23T11:08:59.750Z,23.40
2019-01-23T11:11:29.319Z,23.57
2019-01-23T11:14:05.921Z,23.13
2019-01-23T11:16:45.439Z,21.93
2019-01-23T11:19:14.714Z,23.20
2019-01-23T11:21:44.459Z,21.83
2019-01-23T11:24:14.076Z,22.47
2019-01-23T11:26:47.062Z,21.97
2019-01-23T11:29:21.146Z,23.23
2019-01-23T11:31:50.650Z,18.67
2019-01-23T11:34:21.375Z,20.53
2019-01-23T11:36:50.352Z,20.30
2019-01-23T11:39:19.432Z,19.13
2019-01-23T11:41:51.203Z,19.33
2019-01-23T11:44:23.102Z,21.43
2019-01-23T11:46:54.221Z,20.57
2019-01-23T11:49:23.844Z,19.00
2019-01-23T11:51:52.872Z,19.07
2019-01-23T11:54:22.240Z,18.47
2019-01-23T11:56:52.359Z,19.00
2019-01-23T11:59:26.685Z,18.47
2019-01-23T12:01:56.679Z,19.13
2019-01-23T12:04:32.198Z,18.27
2019-01-23T12:07:01.783Z,18.87
2019-01-23T12:09:35.774Z,17.60
2019-01-23T12:12:05.311Z,17.03
2019-01-23T12:14:35.235Z,18.43
2019-01-23T12:17:14.745Z,18.80
2019-01-23T12:19:44.166Z,15.87
2019-01-23T12:22:17.851Z,16.43
2019-01-23T12:24:47.589Z,17.97
2019-01-23T12:27:19.198Z,15.37
2019-01-23T12:29:49.003Z,14.33
2019-01-23T12:32:22.477Z,15.10
2019-01-23T12:34:53.735Z,13.73
2019-01-23T12:37:25.581Z,13.00
2019-01-23T12:39:57.282Z,13.03
2019-01-23T12:42:30.670Z,11.70
2019-01-23T12:45:01.882Z,12.50
2019-01-23T12:47:35.257Z,15.27
2019-01-23T12:50:06.142Z,11.60
2019-01-23T12:52:36.179Z,12.73
2019-01-23T12:55:08.783Z,12.47
2019-01-23T12:57:37.945Z,11.80
2019-01-23T13:03:03.298Z,12.33
2019-01-23T13:05:33.851Z,11.30
2019-01-23T13:08:04.872Z,11.60
2019-01-23T13:10:36.739Z,12.47
2019-01-23T13:13:09.192Z,11.17
2019-01-23T13:15:38.794Z,11.27
2019-01-23T13:18:11.589Z,11.77
2019-01-23T13:20:41.642Z,13.50
2019-01-23T13:23:19.624Z,10.87
2019-01-23T13:25:45.030Z,11.03
2019-01-23T13:28:14.130Z,11.57
2019-01-23T13:30:50.027Z,12.20
2019-01-23T13:33:19.367Z,12.07
2019-01-23T13:35:57.904Z,10.63
2019-01-23T13:38:32.764Z,11.10
2019-01-23T13:41:06.227Z,11.83
2019-01-23T13:43:36.877Z,14.13
2019-01-23T13:46:06.337Z,13.90
2019-01-23T13:48:35.858Z,11.63
2019-01-23T13:51:07.336Z,11.50
2019-01-23T13:53:37.037Z,13.07
2019-01-23T13:56:08.948Z,10.97
2019-01-23T13:58:41.886Z,13.67
2019-01-23T14:01:10.277Z,11.60
2019-01-23T14:03:39.718Z,13.70
2019-01-23T14:06:09.411Z,12.50
2019-01-23T14:08:41.060Z,13.53
2019-01-23T14:11:10.113Z,13.03
2019-01-23T14:13:39.939Z,13.37
2019-01-23T14:16:08.922Z,12.27
2019-01-23T14:18:37.934Z,13.10
2019-01-23T14:21:07.105Z,13.60
2019-01-23T14:23:40.420Z,13.90
2019-01-23T14:26:09.505Z,13.60
2019-01-23T14:28:38.690Z,13.80
2019-01-23T14:31:09.568Z,14.30
2019-01-23T14:33:38.566Z,13.37
2019-01-23T14:36:09.692Z,14.83
2019-01-23T14:38:41.634Z,14.87
2019-01-23T14:41:10.660Z,14.67
2019-01-23T14:43:39.954Z,15.57
2019-01-23T14:46:09.069Z,16.53
2019-01-23T14:48:38.301Z,16.43
2019-01-23T14:51:07.832Z,16.67
2019-01-23T14:53:36.680Z,15.80
2019-01-23T14:56:05.708Z,14.93
2019-01-23T14:58:34.866Z,16.23
2019-01-23T15:01:04.150Z,19.93
2019-01-23T15:03:33.146Z,15.27
2019-01-23T15:06:03.830Z,15.70
2019-01-23T15:08:32.933Z,16.57
2019-01-23T15:11:02.173Z,15.80
2019-01-23T15:13:32.756Z,15.87
2019-01-23T15:16:01.826Z,15.93
2019-01-23T15:18:30.789Z,15.87
2019-01-23T15:20:59.613Z,16.00
2019-01-23T15:23:28.649Z,16.40
2019-01-23T15:25:59.266Z,15.97
2019-01-23T15:28:29.201Z,16.13
2019-01-23T15:30:58.333Z,15.43
2019-01-23T15:33:29.572Z,15.70
2019-01-23T15:35:58.874Z,15.50
2019-01-23T15:38:29.093Z,17.10
2019-01-23T15:40:58.060Z,15.60
2019-01-23T15:43:26.973Z,16.13
2019-01-23T15:45:57.201Z,15.77
2019-01-23T15:48:28.442Z,16.13
2019-01-23T15:50:57.334Z,17.57
2019-01-23T15:53:26.292Z,15.37
2019-01-23T15:55:55.235Z,15.53
2019-01-23T15:58:25.769Z,14.97
2019-01-23T16:00:55.014Z,16.17
2019-01-23T16:03:24.868Z,15.13
2019-01-23T16:05:54.748Z,15.23
2019-01-23T16:08:23.766Z,14.60
2019-01-23T16:10:52.750Z,15.57
2019-01-23T16:13:27.613Z,14.43
2019-01-23T16:15:56.689Z,14.33
2019-01-23T16:18:26.752Z,14.93
2019-01-23T16:20:56.167Z,15.17
2019-01-23T16:23:25.407Z,15.30
2019-01-23T16:25:57.637Z,15.30
2019-01-23T16:28:27.027Z,15.90
2019-01-23T16:30:58.122Z,15.47
2019-01-23T16:33:27.113Z,15.53
2019-01-23T16:35:56.186Z,15.30
2019-01-23T16:38:25.893Z,16.10
2019-01-23T16:40:54.859Z,16.73
2019-01-23T16:43:23.981Z,14.93
2019-01-23T16:45:57.552Z,16.10
2019-01-23T16:48:26.622Z,17.03
2019-01-23T16:50:57.611Z,16.63
2019-01-23T16:53:27.606Z,16.80
2019-01-23T16:55:58.870Z,17.90
2019-01-23T16:58:36.079Z,17.60
2019-01-23T17:01:06.094Z,18.07
2019-01-23T17:03:36.954Z,19.00
2019-01-23T17:06:06.678Z,19.07
2019-01-23T17:08:36.719Z,21.17
2019-01-23T17:11:07.276Z,18.60
2019-01-23T17:13:36.615Z,20.10
2019-01-23T17:16:05.706Z,19.47
2019-01-23T17:18:38.202Z,19.77
2019-01-23T17:21:07.568Z,19.37
2019-01-23T17:23:36.441Z,19.17
2019-01-23T17:26:05.669Z,20.60
2019-01-23T17:28:34.812Z,20.37
2019-01-23T17:31:04.261Z,20.87
2019-01-23T17:33:35.354Z,21.27
2019-01-23T17:36:05.093Z,19.37
2019-01-23T17:38:36.875Z,20.80
2019-01-23T17:41:06.622Z,20.63
2019-01-23T17:43:36.639Z,20.27
2019-01-23T17:46:08.668Z,21.30
2019-01-23T17:48:41.338Z,21.57
2019-01-23T17:51:10.501Z,24.00
2019-01-23T17:53:39.611Z,22.50
2019-01-23T17:56:08.922Z,22.47
2019-01-23T17:58:41.426Z,21.93
2019-01-23T18:01:11.085Z,22.20
2019-01-23T18:03:41.696Z,22.30
2019-01-23T18:06:11.086Z,22.53
2019-01-23T18:08:58.515Z,22.57
2019-01-23T18:11:30.050Z,24.23
2019-01-23T18:13:59.146Z,24.63
2019-01-23T18:16:30.382Z,23.53
2019-01-23T18:19:01.409Z,24.00
2019-01-23T18:21:30.412Z,24.40
2019-01-23T18:23:59.953Z,24.57
2019-01-23T18:26:29.239Z,24.67
2019-01-23T18:28:58.506Z,24.87
2019-01-23T18:31:33.297Z,25.60
2019-01-23T18:34:38.072Z,25.63
2019-01-23T18:37:44.879Z,25.00
2019-01-23T18:40:43.058Z,24.37
2019-01-23T18:43:47.893Z,24.80
2019-01-23T18:46:46.103Z,25.17
2019-01-23T18:49:34.472Z,25.10
2019-01-23T18:52:11.551Z,27.03
2019-01-23T18:54:40.634Z,24.43
2019-01-23T18:57:16.034Z,26.77
2019-01-23T18:59:45.965Z,26.00
2019-01-23T19:02:15.634Z,25.80
2019-01-23T19:04:47.531Z,26.17
2019-01-23T19:07:22.223Z,24.60
2019-01-23T19:09:54.814Z,24.77
2019-01-23T19:12:23.890Z,25.30
2019-01-23T19:14:53.175Z,26.07
2019-01-23T19:17:27.094Z,24.33
2019-01-23T19:20:02.981Z,25.23
2019-01-23T19:22:32.482Z,24.77
2019-01-23T19:25:04.456Z,25.13
2019-01-23T19:27:35.255Z,22.87
2019-01-23T19:30:09.195Z,24.03
2019-01-23T19:32:38.345Z,23.90
2019-01-23T19:35:08.078Z,24.80
2019-01-23T19:37:37.895Z,25.17
2019-01-23T19:40:09.473Z,25.23
2019-01-23T19:42:38.729Z,24.27
2019-01-23T19:45:16.876Z,24.20
2019-01-23T19:47:47.290Z,22.10
2019-01-23T19:50:24.818Z,24.70
2019-01-23T19:52:54.559Z,22.97
2019-01-23T19:55:23.579Z,22.93
2019-01-23T19:57:52.536Z,23.30
2019-01-23T20:00:23.226Z,23.23
2019-01-23T20:02:53.142Z,23.17
2019-01-23T20:05:30.267Z,23.47
2019-01-23T20:07:59.746Z,21.77
2019-01-23T20:10:43.889Z,22.63
2019-01-23T20:13:14.625Z,23.50
2019-01-23T20:15:43.735Z,23.40
2019-01-23T20:18:13.942Z,22.60
2019-01-23T20:20:44.665Z,22.90
2019-01-23T20:23:13.654Z,22.57
2019-01-23T20:25:43.501Z,23.37
2019-01-23T20:28:13.727Z,23.63
2019-01-23T20:30:44.901Z,22.37
2019-01-23T20:33:14.029Z,23.00
2019-01-23T20:35:43.161Z,22.00
2019-01-23T20:38:12.161Z,23.23
2019-01-23T20:40:43.556Z,23.10
2019-01-23T20:43:13.567Z,24.50
2019-01-23T20:45:42.730Z,23.47
2019-01-23T20:48:12.422Z,27.57
2019-01-23T20:50:41.717Z,22.77
2019-01-23T20:53:12.061Z,22.57
2019-01-23T20:55:41.392Z,22.77
2019-01-23T20:58:11.352Z,22.90
2019-01-23T21:00:48.393Z,24.43
2019-01-23T21:03:20.743Z,23.07
2019-01-23T21:05:52.285Z,22.50
2019-01-23T21:08:21.367Z,22.37
2019-01-23T21:10:51.857Z,23.23
2019-01-23T21:13:22.141Z,23.37
2019-01-23T21:15:51.237Z,23.90
2019-01-23T21:18:20.245Z,23.40
2019-01-23T21:20:51.670Z,24.00
2019-01-23T21:23:21.579Z,23.27
2019-01-23T21:25:51.046Z,21.77
2019-01-23T21:28:29.895Z,21.80
2019-01-23T21:31:03.652Z,22.83
2019-01-23T21:33:32.841Z,22.07
2019-01-23T21:36:03.282Z,22.40
2019-01-23T21:39:16.781Z,22.87
2019-01-23T21:41:45.763Z,22.77
2019-01-23T21:44:17.312Z,21.97
2019-01-23T21:46:45.626Z,22.13
2019-01-23T21:49:16.538Z,22.40
2019-01-23T21:51:45.725Z,22.30
2019-01-23T21:54:35.629Z,22.57
2019-01-23T21:57:08.474Z,22.83
2019-01-23T21:59:41.108Z,21.87
2019-01-23T22:02:13.721Z,22.30
2019-01-23T22:04:45.593Z,21.60
2019-01-23T22:07:15.274Z,21.63
2019-01-23T22:10:03.559Z,21.83
2019-01-23T22:12:34.595Z,21.97
2019-01-23T22:15:11.539Z,21.63
2019-01-23T22:17:44.402Z,21.20
2019-01-23T22:20:20.028Z,21.17
2019-01-23T22:22:51.269Z,20.47
2019-01-23T22:25:26.340Z,20.90
2019-01-23T22:27:58.156Z,21.40
2019-01-23T22:30:44.685Z,20.90
2019-01-23T22:33:17.787Z,21.23
2019-01-23T22:35:48.448Z,22.97
2019-01-23T22:38:21.471Z,20.63
2019-01-23T22:40:53.293Z,19.67
2019-01-23T22:43:29.169Z,18.27
2019-01-23T22:46:07.193Z,20.13
2019-01-23T22:48:39.355Z,19.47
2019-01-23T22:51:10.621Z,20.30
2019-01-23T22:53:43.299Z,19.07
2019-01-23T22:56:19.484Z,18.20
2019-01-23T22:58:51.633Z,18.77
2019-01-23T23:01:27.962Z,15.80
2019-01-23T23:04:03.761Z,19.63
2019-01-23T23:06:46.638Z,18.47
2019-01-23T23:09:24.989Z,19.53
2019-01-23T23:12:00.105Z,18.07
2019-01-23T23:14:36.866Z,19.67
2019-01-23T23:17:24.122Z,19.57
2019-01-23T23:20:14.562Z,19.40
2019-01-23T23:23:21.903Z,16.37
2019-01-23T23:25:57.679Z,18.97
2019-01-23T23:28:47.024Z,18.97
2019-01-23T23:31:21.539Z,16.83
2019-01-23T23:33:51.274Z,19.53
2019-01-23T23:36:22.497Z,18.50
2019-01-23T23:38:53.482Z,19.20
2019-01-23T23:41:24.510Z,18.93
2019-01-23T23:43:54.621Z,18.50
2019-01-23T23:46:23.516Z,19.53
2019-01-23T23:48:52.660Z,18.83
2019-01-23T23:51:23.609Z,19.30
2019-01-23T23:53:52.877Z,18.93
2019-01-23T23:56:21.910Z,17.77
2019-01-23T23:58:51.258Z,16.73
